sensor_id;sensor_type;location;lat;lon;timestamp;P1;durP1;ratioP1;P2;durP2;ratioP2
8871;SDS011;4472;52.092;9.820;2023-02-01T00:01:48;19.70;;;4.67;;
8871;SDS011;4472;52.092;9.820;2023-02-01T00:04:35;20.80;;;4.60;;
8871;SDS011;4472;52.092;9.820;2023-02-01T00:07:22;23.03;;;4.83;;
8871;SDS011;4472;52.092;9.820;2023-02-01T00:10:10;18.50;;;4.97;;
8871;SDS011;4472;52.092;9.820;2023-02-01T00:12:59;19.47;;;5.47;;
8871;SDS011;4472;52.092;9.820;2023-02-01T00:15:47;24.40;;;5.30;;
8871;SDS011;4472;52.092;9.820;2023-02-01T00:18:36;20.80;;;4.77;;
8871;SDS011;4472;52.092;9.820;2023-02-01T00:21:24;16.90;;;4.23;;
8871;SDS011;4472;52.092;9.820;2023-02-01T00:24:11;22.83;;;4.10;;
8871;SDS011;4472;52.092;9.820;2023-02-01T00:26:59;25.23;;;4.13;;
8871;SDS011;4472;52.092;9.820;2023-02-01T00:29:47;18.30;;;4.27;;
8871;SDS011;4472;52.092;9.820;2023-02-01T00:32:35;18.60;;;4.43;;
8871;SDS011;4472;52.092;9.820;2023-02-01T00:35:22;19.60;;;3.83;;
8871;SDS011;4472;52.092;9.820;2023-02-01T00:38:09;21.23;;;4.43;;
8871;SDS011;4472;52.092;9.820;2023-02-01T00:41:01;25.33;;;4.67;;
8871;SDS011;4472;52.092;9.820;2023-02-01T00:43:49;21.03;;;4.23;;
8871;SDS011;4472;52.092;9.820;2023-02-01T00:46:38;23.07;;;4.63;;
8871;SDS011;4472;52.092;9.820;2023-02-01T00:49:25;28.33;;;4.60;;
8871;SDS011;4472;52.092;9.820;2023-02-01T00:52:13;20.33;;;4.70;;
8871;SDS011;4472;52.092;9.820;2023-02-01T00:55:00;23.57;;;4.53;;
8871;SDS011;4472;52.092;9.820;2023-02-01T00:57:47;20.70;;;4.87;;
8871;SDS011;4472;52.092;9.820;2023-02-01T01:00:35;20.90;;;4.83;;
8871;SDS011;4472;52.092;9.820;2023-02-01T01:03:23;25.70;;;5.80;;
8871;SDS011;4472;52.092;9.820;2023-02-01T01:06:12;20.67;;;4.33;;
8871;SDS011;4472;52.092;9.820;2023-02-01T01:09:02;18.17;;;4.80;;
8871;SDS011;4472;52.092;9.820;2023-02-01T01:11:51;20.63;;;4.00;;
8871;SDS011;4472;52.092;9.820;2023-02-01T01:14:38;16.50;;;3.90;;
8871;SDS011;4472;52.092;9.820;2023-02-01T01:17:25;18.37;;;4.23;;
8871;SDS011;4472;52.092;9.820;2023-02-01T01:20:14;27.43;;;5.33;;
8871;SDS011;4472;52.092;9.820;2023-02-01T01:23:02;19.93;;;4.00;;
8871;SDS011;4472;52.092;9.820;2023-02-01T01:25:49;16.63;;;3.87;;
8871;SDS011;4472;52.092;9.820;2023-02-01T01:28:36;17.53;;;4.23;;
8871;SDS011;4472;52.092;9.820;2023-02-01T01:31:24;17.00;;;4.37;;
8871;SDS011;4472;52.092;9.820;2023-02-01T01:34:11;19.97;;;3.63;;
8871;SDS011;4472;52.092;9.820;2023-02-01T01:37:00;25.73;;;4.03;;
8871;SDS011;4472;52.092;9.820;2023-02-01T01:39:47;18.17;;;3.90;;
8871;SDS011;4472;52.092;9.820;2023-02-01T01:42:37;21.40;;;3.90;;
8871;SDS011;4472;52.092;9.820;2023-02-01T01:45:26;25.73;;;4.90;;
8871;SDS011;4472;52.092;9.820;2023-02-01T01:48:15;22.37;;;4.03;;
8871;SDS011;4472;52.092;9.820;2023-02-01T01:51:06;26.10;;;4.77;;
8871;SDS011;4472;52.092;9.820;2023-02-01T01:53:59;16.10;;;3.67;;
8871;SDS011;4472;52.092;9.820;2023-02-01T01:56:49;30.23;;;4.50;;
8871;SDS011;4472;52.092;9.820;2023-02-01T01:59:38;23.10;;;4.50;;
8871;SDS011;4472;52.092;9.820;2023-02-01T02:02:28;20.33;;;4.67;;
8871;SDS011;4472;52.092;9.820;2023-02-01T02:05:15;17.60;;;4.20;;
8871;SDS011;4472;52.092;9.820;2023-02-01T02:08:04;17.03;;;3.97;;
8871;SDS011;4472;52.092;9.820;2023-02-01T02:10:53;19.17;;;4.40;;
8871;SDS011;4472;52.092;9.820;2023-02-01T02:13:47;16.37;;;4.90;;
8871;SDS011;4472;52.092;9.820;2023-02-01T02:16:49;22.30;;;4.93;;
8871;SDS011;4472;52.092;9.820;2023-02-01T02:23:16;15.90;;;4.27;;
8871;SDS011;4472;52.092;9.820;2023-02-01T02:26:34;20.30;;;5.03;;
8871;SDS011;4472;52.092;9.820;2023-02-01T02:29:50;22.00;;;4.40;;
8871;SDS011;4472;52.092;9.820;2023-02-01T02:36:36;18.37;;;5.23;;
8871;SDS011;4472;52.092;9.820;2023-02-01T02:39:32;19.47;;;4.77;;
8871;SDS011;4472;52.092;9.820;2023-02-01T02:42:26;18.87;;;4.73;;
8871;SDS011;4472;52.092;9.820;2023-02-01T02:45:38;23.20;;;4.10;;
8871;SDS011;4472;52.092;9.820;2023-02-01T02:48:50;24.47;;;4.63;;
8871;SDS011;4472;52.092;9.820;2023-02-01T02:51:45;22.53;;;4.67;;
8871;SDS011;4472;52.092;9.820;2023-02-01T02:54:55;17.57;;;4.37;;
8871;SDS011;4472;52.092;9.820;2023-02-01T02:57:44;14.17;;;4.03;;
8871;SDS011;4472;52.092;9.820;2023-02-01T03:00:49;22.53;;;4.63;;
8871;SDS011;4472;52.092;9.820;2023-02-01T03:03:55;15.17;;;4.97;;
8871;SDS011;4472;52.092;9.820;2023-02-01T03:06:55;14.77;;;4.40;;
8871;SDS011;4472;52.092;9.820;2023-02-01T03:09:43;20.63;;;4.07;;
8871;SDS011;4472;52.092;9.820;2023-02-01T03:12:34;20.33;;;4.47;;
8871;SDS011;4472;52.092;9.820;2023-02-01T03:15:42;18.63;;;4.87;;
8871;SDS011;4472;52.092;9.820;2023-02-01T03:18:36;23.43;;;4.80;;
8871;SDS011;4472;52.092;9.820;2023-02-01T03:21:29;15.10;;;4.37;;
8871;SDS011;4472;52.092;9.820;2023-02-01T03:24:22;22.47;;;5.37;;
8871;SDS011;4472;52.092;9.820;2023-02-01T03:27:19;17.73;;;4.70;;
8871;SDS011;4472;52.092;9.820;2023-02-01T03:30:10;20.77;;;4.20;;
8871;SDS011;4472;52.092;9.820;2023-02-01T03:33:05;21.40;;;4.83;;
8871;SDS011;4472;52.092;9.820;2023-02-01T03:36:01;15.70;;;3.93;;
8871;SDS011;4472;52.092;9.820;2023-02-01T03:38:58;19.67;;;4.90;;
8871;SDS011;4472;52.092;9.820;2023-02-01T03:41:51;21.03;;;5.07;;
8871;SDS011;4472;52.092;9.820;2023-02-01T03:44:43;20.03;;;4.10;;
8871;SDS011;4472;52.092;9.820;2023-02-01T03:47:36;12.20;;;4.93;;
8871;SDS011;4472;52.092;9.820;2023-02-01T03:50:27;22.50;;;5.73;;
8871;SDS011;4472;52.092;9.820;2023-02-01T03:53:16;22.70;;;5.23;;
8871;SDS011;4472;52.092;9.820;2023-02-01T03:56:07;22.10;;;4.80;;
8871;SDS011;4472;52.092;9.820;2023-02-01T03:58:58;17.10;;;4.23;;
8871;SDS011;4472;52.092;9.820;2023-02-01T04:01:45;18.13;;;4.90;;
8871;SDS011;4472;52.092;9.820;2023-02-01T04:04:32;19.77;;;4.40;;
8871;SDS011;4472;52.092;9.820;2023-02-01T04:07:20;16.53;;;4.73;;
8871;SDS011;4472;52.092;9.820;2023-02-01T04:10:08;13.03;;;4.87;;
8871;SDS011;4472;52.092;9.820;2023-02-01T04:12:56;25.20;;;5.40;;
8871;SDS011;4472;52.092;9.820;2023-02-01T04:15:45;22.40;;;5.00;;
8871;SDS011;4472;52.092;9.820;2023-02-01T04:18:35;21.77;;;4.80;;
8871;SDS011;4472;52.092;9.820;2023-02-01T04:21:22;21.23;;;5.23;;
8871;SDS011;4472;52.092;9.820;2023-02-01T04:24:09;20.70;;;5.27;;
8871;SDS011;4472;52.092;9.820;2023-02-01T04:26:57;13.93;;;4.37;;
8871;SDS011;4472;52.092;9.820;2023-02-01T04:29:44;20.50;;;5.10;;
8871;SDS011;4472;52.092;9.820;2023-02-01T04:32:32;15.23;;;4.97;;
8871;SDS011;4472;52.092;9.820;2023-02-01T04:35:20;22.67;;;5.27;;
8871;SDS011;4472;52.092;9.820;2023-02-01T04:38:07;17.70;;;4.60;;
8871;SDS011;4472;52.092;9.820;2023-02-01T04:40:54;22.33;;;5.13;;
8871;SDS011;4472;52.092;9.820;2023-02-01T04:43:41;22.50;;;5.33;;
8871;SDS011;4472;52.092;9.820;2023-02-01T04:46:28;22.30;;;5.17;;
8871;SDS011;4472;52.092;9.820;2023-02-01T04:49:17;20.63;;;5.13;;
8871;SDS011;4472;52.092;9.820;2023-02-01T04:52:06;18.03;;;4.70;;
8871;SDS011;4472;52.092;9.820;2023-02-01T04:54:54;14.37;;;4.70;;
8871;SDS011;4472;52.092;9.820;2023-02-01T04:57:42;15.23;;;4.17;;
8871;SDS011;4472;52.092;9.820;2023-02-01T05:00:29;15.97;;;3.90;;
8871;SDS011;4472;52.092;9.820;2023-02-01T05:03:18;25.60;;;5.57;;
8871;SDS011;4472;52.092;9.820;2023-02-01T05:06:10;15.20;;;3.90;;
8871;SDS011;4472;52.092;9.820;2023-02-01T05:08:57;18.53;;;4.90;;
8871;SDS011;4472;52.092;9.820;2023-02-01T05:11:44;19.30;;;4.67;;
8871;SDS011;4472;52.092;9.820;2023-02-01T05:14:49;14.80;;;4.20;;
8871;SDS011;4472;52.092;9.820;2023-02-01T05:17:36;14.97;;;3.87;;
8871;SDS011;4472;52.092;9.820;2023-02-01T05:20:25;16.07;;;4.03;;
8871;SDS011;4472;52.092;9.820;2023-02-01T05:23:13;18.60;;;4.50;;
8871;SDS011;4472;52.092;9.820;2023-02-01T05:26:01;18.37;;;4.73;;
8871;SDS011;4472;52.092;9.820;2023-02-01T05:28:48;14.53;;;3.97;;
8871;SDS011;4472;52.092;9.820;2023-02-01T05:31:35;12.47;;;3.90;;
8871;SDS011;4472;52.092;9.820;2023-02-01T05:34:23;19.93;;;4.60;;
8871;SDS011;4472;52.092;9.820;2023-02-01T05:37:10;13.40;;;4.00;;
8871;SDS011;4472;52.092;9.820;2023-02-01T05:39:58;16.40;;;4.20;;
8871;SDS011;4472;52.092;9.820;2023-02-01T05:42:46;19.17;;;4.70;;
8871;SDS011;4472;52.092;9.820;2023-02-01T05:45:33;13.50;;;3.70;;
8871;SDS011;4472;52.092;9.820;2023-02-01T05:48:20;8.87;;;3.60;;
8871;SDS011;4472;52.092;9.820;2023-02-01T05:51:07;16.90;;;4.07;;
8871;SDS011;4472;52.092;9.820;2023-02-01T05:53:55;16.10;;;4.33;;
8871;SDS011;4472;52.092;9.820;2023-02-01T05:56:44;17.70;;;4.70;;
8871;SDS011;4472;52.092;9.820;2023-02-01T05:59:31;15.73;;;4.07;;
8871;SDS011;4472;52.092;9.820;2023-02-01T06:02:18;15.63;;;4.20;;
8871;SDS011;4472;52.092;9.820;2023-02-01T06:05:09;9.73;;;4.00;;
8871;SDS011;4472;52.092;9.820;2023-02-01T06:07:56;21.87;;;4.20;;
8871;SDS011;4472;52.092;9.820;2023-02-01T06:10:44;13.77;;;4.00;;
8871;SDS011;4472;52.092;9.820;2023-02-01T06:13:32;11.63;;;3.43;;
8871;SDS011;4472;52.092;9.820;2023-02-01T06:16:20;15.50;;;4.27;;
8871;SDS011;4472;52.092;9.820;2023-02-01T06:19:07;16.03;;;3.80;;
8871;SDS011;4472;52.092;9.820;2023-02-01T06:21:55;12.33;;;3.87;;
8871;SDS011;4472;52.092;9.820;2023-02-01T06:24:42;11.00;;;3.57;;
8871;SDS011;4472;52.092;9.820;2023-02-01T06:27:29;15.23;;;4.17;;
8871;SDS011;4472;52.092;9.820;2023-02-01T06:30:18;16.03;;;3.90;;
8871;SDS011;4472;52.092;9.820;2023-02-01T06:33:05;8.33;;;2.97;;
8871;SDS011;4472;52.092;9.820;2023-02-01T06:35:58;13.83;;;4.00;;
8871;SDS011;4472;52.092;9.820;2023-02-01T06:38:47;10.67;;;3.30;;
8871;SDS011;4472;52.092;9.820;2023-02-01T06:41:34;15.83;;;3.33;;
8871;SDS011;4472;52.092;9.820;2023-02-01T06:44:22;13.67;;;3.70;;
8871;SDS011;4472;52.092;9.820;2023-02-01T06:47:11;13.50;;;3.67;;
8871;SDS011;4472;52.092;9.820;2023-02-01T06:49:58;10.37;;;3.17;;
8871;SDS011;4472;52.092;9.820;2023-02-01T06:52:45;9.40;;;2.97;;
8871;SDS011;4472;52.092;9.820;2023-02-01T06:55:33;10.07;;;3.50;;
8871;SDS011;4472;52.092;9.820;2023-02-01T06:58:20;14.13;;;4.27;;
8871;SDS011;4472;52.092;9.820;2023-02-01T07:01:08;6.43;;;2.97;;
8871;SDS011;4472;52.092;9.820;2023-02-01T07:03:58;11.07;;;3.97;;
8871;SDS011;4472;52.092;9.820;2023-02-01T07:06:45;10.83;;;4.30;;
8871;SDS011;4472;52.092;9.820;2023-02-01T07:09:32;13.23;;;4.23;;
8871;SDS011;4472;52.092;9.820;2023-02-01T07:12:19;13.60;;;4.37;;
8871;SDS011;4472;52.092;9.820;2023-02-01T07:15:07;13.43;;;4.07;;
8871;SDS011;4472;52.092;9.820;2023-02-01T07:17:55;11.43;;;3.70;;
8871;SDS011;4472;52.092;9.820;2023-02-01T07:20:46;12.40;;;4.00;;
8871;SDS011;4472;52.092;9.820;2023-02-01T07:23:36;15.43;;;4.40;;
8871;SDS011;4472;52.092;9.820;2023-02-01T07:26:24;17.47;;;4.63;;
8871;SDS011;4472;52.092;9.820;2023-02-01T07:29:11;14.53;;;4.43;;
8871;SDS011;4472;52.092;9.820;2023-02-01T07:31:58;19.10;;;4.23;;
8871;SDS011;4472;52.092;9.820;2023-02-01T07:34:47;19.80;;;4.90;;
8871;SDS011;4472;52.092;9.820;2023-02-01T07:37:36;13.80;;;4.27;;
8871;SDS011;4472;52.092;9.820;2023-02-01T07:40:23;19.33;;;4.17;;
8871;SDS011;4472;52.092;9.820;2023-02-01T07:43:13;16.23;;;4.20;;
8871;SDS011;4472;52.092;9.820;2023-02-01T07:46:01;14.97;;;4.47;;
8871;SDS011;4472;52.092;9.820;2023-02-01T07:48:49;24.10;;;4.47;;
8871;SDS011;4472;52.092;9.820;2023-02-01T07:51:36;14.23;;;4.10;;
8871;SDS011;4472;52.092;9.820;2023-02-01T07:54:25;17.93;;;4.57;;
8871;SDS011;4472;52.092;9.820;2023-02-01T07:57:12;12.73;;;4.13;;
8871;SDS011;4472;52.092;9.820;2023-02-01T07:59:59;10.60;;;3.97;;
8871;SDS011;4472;52.092;9.820;2023-02-01T08:03:06;11.90;;;4.07;;
8871;SDS011;4472;52.092;9.820;2023-02-01T08:05:53;14.83;;;3.73;;
8871;SDS011;4472;52.092;9.820;2023-02-01T08:08:41;17.87;;;3.90;;
8871;SDS011;4472;52.092;9.820;2023-02-01T08:11:31;15.47;;;4.07;;
8871;SDS011;4472;52.092;9.820;2023-02-01T08:17:27;20.67;;;5.37;;
8871;SDS011;4472;52.092;9.820;2023-02-01T08:20:14;16.10;;;3.73;;
8871;SDS011;4472;52.092;9.820;2023-02-01T08:23:02;17.47;;;3.90;;
8871;SDS011;4472;52.092;9.820;2023-02-01T08:25:49;13.87;;;3.97;;
8871;SDS011;4472;52.092;9.820;2023-02-01T08:28:38;16.97;;;4.60;;
8871;SDS011;4472;52.092;9.820;2023-02-01T08:31:27;17.80;;;4.47;;
8871;SDS011;4472;52.092;9.820;2023-02-01T08:34:15;16.70;;;3.90;;
8871;SDS011;4472;52.092;9.820;2023-02-01T08:37:02;14.80;;;4.77;;
8871;SDS011;4472;52.092;9.820;2023-02-01T08:39:50;16.93;;;4.23;;
8871;SDS011;4472;52.092;9.820;2023-02-01T08:42:37;16.53;;;3.37;;
8871;SDS011;4472;52.092;9.820;2023-02-01T08:45:41;16.17;;;3.63;;
8871;SDS011;4472;52.092;9.820;2023-02-01T08:48:28;19.77;;;4.10;;
8871;SDS011;4472;52.092;9.820;2023-02-01T08:51:15;21.93;;;4.07;;
8871;SDS011;4472;52.092;9.820;2023-02-01T08:54:05;17.43;;;4.17;;
8871;SDS011;4472;52.092;9.820;2023-02-01T08:56:52;12.90;;;3.50;;
8871;SDS011;4472;52.092;9.820;2023-02-01T08:59:40;20.53;;;4.30;;
8871;SDS011;4472;52.092;9.820;2023-02-01T09:02:30;15.83;;;4.00;;
8871;SDS011;4472;52.092;9.820;2023-02-01T09:05:18;13.73;;;3.53;;
8871;SDS011;4472;52.092;9.820;2023-02-01T09:08:07;13.73;;;3.50;;
8871;SDS011;4472;52.092;9.820;2023-02-01T09:10:57;20.77;;;3.53;;
8871;SDS011;4472;52.092;9.820;2023-02-01T09:13:46;10.90;;;3.10;;
8871;SDS011;4472;52.092;9.820;2023-02-01T09:16:34;14.80;;;3.90;;
8871;SDS011;4472;52.092;9.820;2023-02-01T09:19:22;10.93;;;3.20;;
8871;SDS011;4472;52.092;9.820;2023-02-01T09:22:10;17.07;;;3.30;;
8871;SDS011;4472;52.092;9.820;2023-02-01T09:24:57;15.20;;;4.27;;
8871;SDS011;4472;52.092;9.820;2023-02-01T09:27:44;17.73;;;3.83;;
8871;SDS011;4472;52.092;9.820;2023-02-01T09:30:32;10.03;;;3.53;;
8871;SDS011;4472;52.092;9.820;2023-02-01T09:33:19;12.83;;;4.03;;
8871;SDS011;4472;52.092;9.820;2023-02-01T09:36:08;15.30;;;4.03;;
8871;SDS011;4472;52.092;9.820;2023-02-01T09:38:58;10.80;;;3.50;;
8871;SDS011;4472;52.092;9.820;2023-02-01T09:41:49;14.87;;;3.30;;
8871;SDS011;4472;52.092;9.820;2023-02-01T09:44:52;16.47;;;3.33;;
8871;SDS011;4472;52.092;9.820;2023-02-01T09:47:50;17.50;;;3.57;;
8871;SDS011;4472;52.092;9.820;2023-02-01T09:50:44;12.43;;;3.47;;
8871;SDS011;4472;52.092;9.820;2023-02-01T09:53:37;15.03;;;3.37;;
8871;SDS011;4472;52.092;9.820;2023-02-01T09:56:29;13.83;;;3.20;;
8871;SDS011;4472;52.092;9.820;2023-02-01T09:59:28;15.83;;;3.83;;
8871;SDS011;4472;52.092;9.820;2023-02-01T10:02:20;17.17;;;4.13;;
8871;SDS011;4472;52.092;9.820;2023-02-01T10:05:12;13.37;;;4.23;;
8871;SDS011;4472;52.092;9.820;2023-02-01T10:08:04;18.03;;;4.63;;
8871;SDS011;4472;52.092;9.820;2023-02-01T10:11:02;16.53;;;4.00;;
8871;SDS011;4472;52.092;9.820;2023-02-01T10:13:59;15.87;;;3.70;;
8871;SDS011;4472;52.092;9.820;2023-02-01T10:16:50;15.00;;;3.70;;
8871;SDS011;4472;52.092;9.820;2023-02-01T10:19:47;10.73;;;3.63;;
8871;SDS011;4472;52.092;9.820;2023-02-01T10:22:46;6.27;;;3.17;;
8871;SDS011;4472;52.092;9.820;2023-02-01T10:25:36;15.57;;;3.10;;
8871;SDS011;4472;52.092;9.820;2023-02-01T10:28:30;14.73;;;4.47;;
8871;SDS011;4472;52.092;9.820;2023-02-01T10:31:21;12.10;;;3.50;;
8871;SDS011;4472;52.092;9.820;2023-02-01T10:34:14;11.80;;;3.67;;
8871;SDS011;4472;52.092;9.820;2023-02-01T10:37:10;15.23;;;3.50;;
8871;SDS011;4472;52.092;9.820;2023-02-01T10:40:15;19.00;;;4.07;;
8871;SDS011;4472;52.092;9.820;2023-02-01T10:43:07;9.90;;;2.93;;
8871;SDS011;4472;52.092;9.820;2023-02-01T10:45:57;10.37;;;2.87;;
8871;SDS011;4472;52.092;9.820;2023-02-01T10:48:44;14.63;;;3.70;;
8871;SDS011;4472;52.092;9.820;2023-02-01T10:51:37;7.80;;;2.90;;
8871;SDS011;4472;52.092;9.820;2023-02-01T10:54:32;15.07;;;3.10;;
8871;SDS011;4472;52.092;9.820;2023-02-01T10:57:21;9.67;;;2.97;;
8871;SDS011;4472;52.092;9.820;2023-02-01T11:00:18;17.60;;;4.53;;
8871;SDS011;4472;52.092;9.820;2023-02-01T11:03:20;12.87;;;3.27;;
8871;SDS011;4472;52.092;9.820;2023-02-01T11:06:21;12.73;;;3.97;;
8871;SDS011;4472;52.092;9.820;2023-02-01T11:09:16;21.90;;;3.90;;
8871;SDS011;4472;52.092;9.820;2023-02-01T11:12:20;13.13;;;4.97;;
8871;SDS011;4472;52.092;9.820;2023-02-01T11:15:13;14.60;;;4.13;;
8871;SDS011;4472;52.092;9.820;2023-02-01T11:18:12;12.13;;;3.73;;
8871;SDS011;4472;52.092;9.820;2023-02-01T11:21:05;14.17;;;3.50;;
8871;SDS011;4472;52.092;9.820;2023-02-01T11:23:54;16.90;;;3.73;;
8871;SDS011;4472;52.092;9.820;2023-02-01T11:26:47;16.23;;;3.80;;
8871;SDS011;4472;52.092;9.820;2023-02-01T11:29:35;18.03;;;3.50;;
8871;SDS011;4472;52.092;9.820;2023-02-01T11:32:24;11.50;;;3.23;;
8871;SDS011;4472;52.092;9.820;2023-02-01T11:35:13;14.87;;;3.90;;
8871;SDS011;4472;52.092;9.820;2023-02-01T11:38:10;12.63;;;3.20;;
8871;SDS011;4472;52.092;9.820;2023-02-01T11:41:13;15.87;;;3.77;;
8871;SDS011;4472;52.092;9.820;2023-02-01T11:44:15;13.37;;;3.17;;
8871;SDS011;4472;52.092;9.820;2023-02-01T11:47:21;14.27;;;3.60;;
8871;SDS011;4472;52.092;9.820;2023-02-01T11:50:12;14.80;;;3.43;;
8871;SDS011;4472;52.092;9.820;2023-02-01T11:53:07;14.20;;;3.70;;
8871;SDS011;4472;52.092;9.820;2023-02-01T11:56:08;14.67;;;4.07;;
8871;SDS011;4472;52.092;9.820;2023-02-01T11:59:05;14.57;;;3.97;;
8871;SDS011;4472;52.092;9.820;2023-02-01T12:02:14;9.53;;;3.43;;
8871;SDS011;4472;52.092;9.820;2023-02-01T12:08:48;14.07;;;3.80;;
8871;SDS011;4472;52.092;9.820;2023-02-01T12:11:59;13.37;;;3.00;;
8871;SDS011;4472;52.092;9.820;2023-02-01T12:18:06;11.83;;;3.77;;
8871;SDS011;4472;52.092;9.820;2023-02-01T12:21:14;13.03;;;3.40;;
8871;SDS011;4472;52.092;9.820;2023-02-01T12:24:27;14.43;;;3.40;;
8871;SDS011;4472;52.092;9.820;2023-02-01T12:27:45;12.47;;;3.40;;
8871;SDS011;4472;52.092;9.820;2023-02-01T12:31:05;12.23;;;3.93;;
8871;SDS011;4472;52.092;9.820;2023-02-01T12:34:07;9.90;;;2.90;;
8871;SDS011;4472;52.092;9.820;2023-02-01T12:37:06;24.53;;;9.90;;
8871;SDS011;4472;52.092;9.820;2023-02-01T12:40:02;13.27;;;4.90;;
8871;SDS011;4472;52.092;9.820;2023-02-01T12:42:57;18.03;;;4.13;;
8871;SDS011;4472;52.092;9.820;2023-02-01T12:45:49;16.70;;;4.37;;
8871;SDS011;4472;52.092;9.820;2023-02-01T12:48:44;12.63;;;3.30;;
8871;SDS011;4472;52.092;9.820;2023-02-01T12:51:39;13.43;;;3.50;;
8871;SDS011;4472;52.092;9.820;2023-02-01T12:54:32;10.60;;;3.30;;
8871;SDS011;4472;52.092;9.820;2023-02-01T12:57:27;13.57;;;3.60;;
8871;SDS011;4472;52.092;9.820;2023-02-01T13:00:19;10.97;;;3.23;;
8871;SDS011;4472;52.092;9.820;2023-02-01T13:03:19;11.27;;;3.57;;
8871;SDS011;4472;52.092;9.820;2023-02-01T13:06:17;7.53;;;2.90;;
8871;SDS011;4472;52.092;9.820;2023-02-01T13:09:09;10.17;;;3.13;;
8871;SDS011;4472;52.092;9.820;2023-02-01T13:12:11;6.73;;;3.30;;
8871;SDS011;4472;52.092;9.820;2023-02-01T13:15:04;11.00;;;3.10;;
8871;SDS011;4472;52.092;9.820;2023-02-01T13:17:58;12.23;;;3.10;;
8871;SDS011;4472;52.092;9.820;2023-02-01T13:20:50;8.37;;;3.17;;
8871;SDS011;4472;52.092;9.820;2023-02-01T13:23:41;6.97;;;2.23;;
8871;SDS011;4472;52.092;9.820;2023-02-01T13:26:33;4.33;;;2.70;;
8871;SDS011;4472;52.092;9.820;2023-02-01T13:29:20;7.90;;;3.13;;
8871;SDS011;4472;52.092;9.820;2023-02-01T13:32:30;8.17;;;3.23;;
8871;SDS011;4472;52.092;9.820;2023-02-01T13:35:40;7.00;;;2.70;;
8871;SDS011;4472;52.092;9.820;2023-02-01T13:42:02;8.43;;;3.53;;
8871;SDS011;4472;52.092;9.820;2023-02-01T13:44:52;6.60;;;3.83;;
8871;SDS011;4472;52.092;9.820;2023-02-01T13:47:45;7.13;;;3.23;;
8871;SDS011;4472;52.092;9.820;2023-02-01T13:50:35;6.03;;;3.03;;
8871;SDS011;4472;52.092;9.820;2023-02-01T13:53:27;5.67;;;2.90;;
8871;SDS011;4472;52.092;9.820;2023-02-01T13:56:17;7.20;;;3.10;;
8871;SDS011;4472;52.092;9.820;2023-02-01T14:02:49;5.80;;;2.30;;
8871;SDS011;4472;52.092;9.820;2023-02-01T14:05:56;2.33;;;1.97;;
8871;SDS011;4472;52.092;9.820;2023-02-01T14:09:05;3.10;;;2.40;;
8871;SDS011;4472;52.092;9.820;2023-02-01T14:15:28;6.03;;;2.83;;
8871;SDS011;4472;52.092;9.820;2023-02-01T14:21:47;1.60;;;1.50;;
8871;SDS011;4472;52.092;9.820;2023-02-01T14:24:36;1.60;;;1.10;;
8871;SDS011;4472;52.092;9.820;2023-02-01T14:27:25;1.77;;;1.50;;
8871;SDS011;4472;52.092;9.820;2023-02-01T14:30:15;6.07;;;1.67;;
8871;SDS011;4472;52.092;9.820;2023-02-01T14:33:11;2.77;;;1.43;;
8871;SDS011;4472;52.092;9.820;2023-02-01T14:36:09;1.50;;;1.40;;
8871;SDS011;4472;52.092;9.820;2023-02-01T14:38:59;1.10;;;1.10;;
8871;SDS011;4472;52.092;9.820;2023-02-01T14:41:46;1.60;;;1.50;;
8871;SDS011;4472;52.092;9.820;2023-02-01T14:44:38;3.87;;;2.33;;
8871;SDS011;4472;52.092;9.820;2023-02-01T14:47:27;1.57;;;1.47;;
8871;SDS011;4472;52.092;9.820;2023-02-01T14:50:19;1.97;;;1.23;;
8871;SDS011;4472;52.092;9.820;2023-02-01T14:53:21;2.80;;;2.07;;
8871;SDS011;4472;52.092;9.820;2023-02-01T14:56:13;6.37;;;3.03;;
8871;SDS011;4472;52.092;9.820;2023-02-01T14:59:06;1.70;;;1.60;;
8871;SDS011;4472;52.092;9.820;2023-02-01T15:01:56;2.83;;;2.20;;
8871;SDS011;4472;52.092;9.820;2023-02-01T15:04:44;2.67;;;1.77;;
8871;SDS011;4472;52.092;9.820;2023-02-01T15:07:32;1.50;;;1.40;;
8871;SDS011;4472;52.092;9.820;2023-02-01T15:10:21;2.80;;;1.50;;
8871;SDS011;4472;52.092;9.820;2023-02-01T15:13:17;1.73;;;1.30;;
8871;SDS011;4472;52.092;9.820;2023-02-01T15:16:09;1.53;;;1.37;;
8871;SDS011;4472;52.092;9.820;2023-02-01T15:19:08;2.43;;;1.30;;
8871;SDS011;4472;52.092;9.820;2023-02-01T15:21:57;5.00;;;1.43;;
8871;SDS011;4472;52.092;9.820;2023-02-01T15:24:51;5.23;;;2.63;;
8871;SDS011;4472;52.092;9.820;2023-02-01T15:27:40;3.77;;;1.70;;
8871;SDS011;4472;52.092;9.820;2023-02-01T15:30:28;3.37;;;1.60;;
8871;SDS011;4472;52.092;9.820;2023-02-01T15:33:17;5.73;;;1.60;;
8871;SDS011;4472;52.092;9.820;2023-02-01T15:36:09;3.77;;;1.53;;
8871;SDS011;4472;52.092;9.820;2023-02-01T15:42:09;4.03;;;1.60;;
8871;SDS011;4472;52.092;9.820;2023-02-01T15:45:02;3.43;;;1.80;;
8871;SDS011;4472;52.092;9.820;2023-02-01T15:47:50;3.43;;;1.83;;
8871;SDS011;4472;52.092;9.820;2023-02-01T15:50:39;4.97;;;1.50;;
8871;SDS011;4472;52.092;9.820;2023-02-01T15:53:27;5.90;;;1.80;;
8871;SDS011;4472;52.092;9.820;2023-02-01T15:56:16;4.70;;;2.50;;
8871;SDS011;4472;52.092;9.820;2023-02-01T15:59:12;6.97;;;1.93;;
8871;SDS011;4472;52.092;9.820;2023-02-01T16:02:03;6.00;;;1.93;;
8871;SDS011;4472;52.092;9.820;2023-02-01T16:04:50;3.30;;;1.53;;
8871;SDS011;4472;52.092;9.820;2023-02-01T16:07:39;7.33;;;2.40;;
8871;SDS011;4472;52.092;9.820;2023-02-01T16:10:27;6.33;;;2.07;;
8871;SDS011;4472;52.092;9.820;2023-02-01T16:13:15;5.70;;;1.80;;
8871;SDS011;4472;52.092;9.820;2023-02-01T16:16:04;6.77;;;1.70;;
8871;SDS011;4472;52.092;9.820;2023-02-01T16:18:55;4.67;;;2.30;;
8871;SDS011;4472;52.092;9.820;2023-02-01T16:21:43;8.97;;;1.93;;
8871;SDS011;4472;52.092;9.820;2023-02-01T16:24:31;7.33;;;2.13;;
8871;SDS011;4472;52.092;9.820;2023-02-01T16:27:18;6.73;;;2.23;;
8871;SDS011;4472;52.092;9.820;2023-02-01T16:30:08;5.30;;;1.83;;
8871;SDS011;4472;52.092;9.820;2023-02-01T16:32:57;7.57;;;2.50;;
8871;SDS011;4472;52.092;9.820;2023-02-01T16:35:46;6.83;;;1.77;;
8871;SDS011;4472;52.092;9.820;2023-02-01T16:38:34;10.57;;;2.17;;
8871;SDS011;4472;52.092;9.820;2023-02-01T16:41:21;3.30;;;1.40;;
8871;SDS011;4472;52.092;9.820;2023-02-01T16:44:09;4.43;;;1.83;;
8871;SDS011;4472;52.092;9.820;2023-02-01T16:46:57;4.40;;;1.60;;
8871;SDS011;4472;52.092;9.820;2023-02-01T16:49:44;7.63;;;2.10;;
8871;SDS011;4472;52.092;9.820;2023-02-01T16:52:33;3.93;;;1.90;;
8871;SDS011;4472;52.092;9.820;2023-02-01T16:55:22;9.57;;;2.20;;
8871;SDS011;4472;52.092;9.820;2023-02-01T16:58:10;6.27;;;1.90;;
8871;SDS011;4472;52.092;9.820;2023-02-01T17:00:57;10.33;;;2.40;;
8871;SDS011;4472;52.092;9.820;2023-02-01T17:03:49;7.90;;;2.20;;
8871;SDS011;4472;52.092;9.820;2023-02-01T17:06:36;10.57;;;2.90;;
8871;SDS011;4472;52.092;9.820;2023-02-01T17:09:26;8.13;;;3.00;;
8871;SDS011;4472;52.092;9.820;2023-02-01T17:12:18;5.20;;;2.23;;
8871;SDS011;4472;52.092;9.820;2023-02-01T17:15:10;9.70;;;2.67;;
8871;SDS011;4472;52.092;9.820;2023-02-01T17:17:57;4.20;;;1.87;;
8871;SDS011;4472;52.092;9.820;2023-02-01T17:20:47;8.67;;;2.00;;
8871;SDS011;4472;52.092;9.820;2023-02-01T17:23:36;7.47;;;1.83;;
8871;SDS011;4472;52.092;9.820;2023-02-01T17:26:27;7.67;;;2.10;;
8871;SDS011;4472;52.092;9.820;2023-02-01T17:29:16;7.00;;;2.00;;
8871;SDS011;4472;52.092;9.820;2023-02-01T17:32:04;7.30;;;2.40;;
8871;SDS011;4472;52.092;9.820;2023-02-01T17:34:51;10.53;;;2.20;;
8871;SDS011;4472;52.092;9.820;2023-02-01T17:37:38;8.63;;;2.50;;
8871;SDS011;4472;52.092;9.820;2023-02-01T17:40:25;9.77;;;2.80;;
8871;SDS011;4472;52.092;9.820;2023-02-01T17:43:16;11.10;;;2.73;;
8871;SDS011;4472;52.092;9.820;2023-02-01T17:46:10;10.53;;;3.00;;
8871;SDS011;4472;52.092;9.820;2023-02-01T17:48:58;10.33;;;3.23;;
8871;SDS011;4472;52.092;9.820;2023-02-01T17:51:48;17.40;;;3.90;;
8871;SDS011;4472;52.092;9.820;2023-02-01T17:54:35;12.43;;;2.73;;
8871;SDS011;4472;52.092;9.820;2023-02-01T17:57:22;14.63;;;3.10;;
8871;SDS011;4472;52.092;9.820;2023-02-01T18:00:12;16.93;;;3.80;;
8871;SDS011;4472;52.092;9.820;2023-02-01T18:03:01;12.07;;;3.70;;
8871;SDS011;4472;52.092;9.820;2023-02-01T18:05:48;13.87;;;3.73;;
8871;SDS011;4472;52.092;9.820;2023-02-01T18:08:38;13.60;;;3.97;;